This is the latest recevied weather packets stored in our database for station/object LRCV. If no packets are shown the sender has not sent any weather packets the latest 1 day(s).
| Time | Temp. | Humidity | Pressure | Rain* | Wind** | Luminosity | Snow |
|---|---|---|---|---|---|---|---|
| 1778096941 | 16.11° C | 77% | 1013 hPa | - | - | - | - |
| 1778096045 | 16.11° C | 77% | 1013 hPa | - | - | - | - |
| 1778094222 | 16.11° C | 72% | 1013 hPa | - | - | - | - |
| 1778093327 | 17.22° C | 73% | 1013 hPa | - | - | - | - |
| 1778089722 | 20° C | 64% | 1012 hPa | - | - | - | - |
| 1778087922 | 22.22° C | 57% | 1012 hPa | - | - | - | - |
| 1778084322 | 25° C | 47% | 1012 hPa | - | - | - | - |
| 1778082522 | 25° C | 47% | 1012 hPa | - | - | - | - |
| 1778080721 | 25° C | 44% | 1012 hPa | - | - | - | - |
| 1778078033 | 26.11° C | 45% | 1012 hPa | - | - | - | - |
| 1778069922 | 25° C | 44% | 1014 hPa | - | - | - | - |
| 1778066321 | 23.89° C | 50% | 1014 hPa | - | - | - | - |
| 1778063622 | 22.78° C | 57% | 1014 hPa | - | - | - | - |
| 1778062722 | 22.78° C | 50% | 1015 hPa | - | - | - | - |
| 1778060021 | 22.22° C | 57% | 1015 hPa | - | - | - | - |
| 1778057322 | 20° C | 60% | 1015 hPa | - | - | - | - |
| 1778055518 | 18.89° C | 60% | 1015 hPa | - | - | - | - |
| 1778053722 | 17.78° C | 64% | 1015 hPa | - | - | - | - |
| 1778052822 | 17.78° C | 64% | 1015 hPa | - | - | - | - |
| 1778051921 | 17.78° C | 68% | 1015 hPa | - | - | - | - |
| 1778051021 | 17.78° C | 68% | 1015 hPa | - | - | - | - |
| 1778048322 | 15° C | 77% | 1015 hPa | - | - | - | - |
| 1778047423 | 15° C | 77% | 1015 hPa | - | - | - | - |
| 1778046523 | 13.89° C | 77% | 1014 hPa | - | - | - | - |
| 1778045630 | 13.89° C | 77% | 1014 hPa | - | - | - | - |
* Rain since midnight (hover to see other rain measurements)
** Current wind speed in m/s (hover to see current wind gust speed)